sensor_id;sensor_type;location;lat;lon;timestamp;pressure;altitude;pressure_sealevel;temperature
20730;BMP280;10526;50.850;12.928;2023-04-15T00:03:07;96827.28;;;6.27
20730;BMP280;10526;50.850;12.928;2023-04-15T00:07:30;96819.69;;;6.29
20730;BMP280;10526;50.850;12.928;2023-04-15T00:11:52;96816.28;;;6.32
20730;BMP280;10526;50.850;12.928;2023-04-15T00:16:14;96810.59;;;6.33
20730;BMP280;10526;50.850;12.928;2023-04-15T00:20:36;96803.81;;;6.32
20730;BMP280;10526;50.850;12.928;2023-04-15T00:24:58;96803.06;;;6.32
20730;BMP280;10526;50.850;12.928;2023-04-15T00:29:20;96804.97;;;6.31
20730;BMP280;10526;50.850;12.928;2023-04-15T00:33:43;96802.31;;;6.31
20730;BMP280;10526;50.850;12.928;2023-04-15T00:38:06;96805.72;;;6.32
20730;BMP280;10526;50.850;12.928;2023-04-15T00:42:29;96803.81;;;6.32
20730;BMP280;10526;50.850;12.928;2023-04-15T00:46:51;96798.88;;;6.34
20730;BMP280;10526;50.850;12.928;2023-04-15T00:51:14;96786.81;;;6.33
20730;BMP280;10526;50.850;12.928;2023-04-15T00:55:36;96791.75;;;6.31
20730;BMP280;10526;50.850;12.928;2023-04-15T00:59:59;96786.06;;;6.29
20730;BMP280;10526;50.850;12.928;2023-04-15T01:04:22;96787.97;;;6.29
20730;BMP280;10526;50.850;12.928;2023-04-15T01:08:45;96785.34;;;6.29
20730;BMP280;10526;50.850;12.928;2023-04-15T01:13:07;96784.16;;;6.33
20730;BMP280;10526;50.850;12.928;2023-04-15T01:17:30;96784.16;;;6.33
20730;BMP280;10526;50.850;12.928;2023-04-15T01:21:52;96775.88;;;6.31
20730;BMP280;10526;50.850;12.928;2023-04-15T01:26:14;96775.50;;;6.29
20730;BMP280;10526;50.850;12.928;2023-04-15T01:30:39;96768.38;;;6.26
20730;BMP280;10526;50.850;12.928;2023-04-15T01:35:01;96765.72;;;6.26
20730;BMP280;10526;50.850;12.928;2023-04-15T01:39:23;96755.94;;;6.23
20730;BMP280;10526;50.850;12.928;2023-04-15T01:43:45;96746.56;;;6.15
20730;BMP280;10526;50.850;12.928;2023-04-15T01:48:08;96745.06;;;6.14
20730;BMP280;10526;50.850;12.928;2023-04-15T01:52:32;96740.16;;;6.16
20730;BMP280;10526;50.850;12.928;2023-04-15T01:56:54;96733.00;;;6.13
20730;BMP280;10526;50.850;12.928;2023-04-15T02:01:18;96734.88;;;6.13
20730;BMP280;10526;50.850;12.928;2023-04-15T02:05:40;96726.94;;;6.13
20730;BMP280;10526;50.850;12.928;2023-04-15T02:10:04;96724.34;;;6.09
20730;BMP280;10526;50.850;12.928;2023-04-15T02:14:29;96717.91;;;6.10
20730;BMP280;10526;50.850;12.928;2023-04-15T02:18:51;96716.41;;;6.09
20730;BMP280;10526;50.850;12.928;2023-04-15T02:23:13;96709.63;;;6.08
20730;BMP280;10526;50.850;12.928;2023-04-15T02:27:37;96705.44;;;6.11
20730;BMP280;10526;50.850;12.928;2023-04-15T02:31:59;96695.66;;;6.11
20730;BMP280;10526;50.850;12.928;2023-04-15T02:36:22;96690.72;;;6.09
20730;BMP280;10526;50.850;12.928;2023-04-15T02:40:44;96710.00;;;6.06
20730;BMP280;10526;50.850;12.928;2023-04-15T02:45:07;96705.84;;;6.09
20730;BMP280;10526;50.850;12.928;2023-04-15T02:49:30;96711.50;;;6.11
20730;BMP280;10526;50.850;12.928;2023-04-15T02:53:52;96716.38;;;6.13
20730;BMP280;10526;50.850;12.928;2023-04-15T02:58:14;96725.03;;;6.17
20730;BMP280;10526;50.850;12.928;2023-04-15T03:02:39;96718.63;;;6.14
20730;BMP280;10526;50.850;12.928;2023-04-15T03:07:03;96733.72;;;6.14
20730;BMP280;10526;50.850;12.928;2023-04-15T03:11:25;96731.50;;;6.12
20730;BMP280;10526;50.850;12.928;2023-04-15T03:15:51;96719.44;;;6.11
20730;BMP280;10526;50.850;12.928;2023-04-15T03:20:15;96714.56;;;6.06
20730;BMP280;10526;50.850;12.928;2023-04-15T03:24:38;96706.63;;;6.06
20730;BMP280;10526;50.850;12.928;2023-04-15T03:29:00;96712.31;;;6.04
20730;BMP280;10526;50.850;12.928;2023-04-15T03:33:23;96715.34;;;6.03
20730;BMP280;10526;50.850;12.928;2023-04-15T03:37:45;96703.66;;;6.00
20730;BMP280;10526;50.850;12.928;2023-04-15T03:42:07;96702.19;;;5.99
20730;BMP280;10526;50.850;12.928;2023-04-15T03:46:29;96708.97;;;5.97
20730;BMP280;10526;50.850;12.928;2023-04-15T03:50:51;96695.41;;;5.95
20730;BMP280;10526;50.850;12.928;2023-04-15T03:55:13;96704.41;;;6.04
20730;BMP280;10526;50.850;12.928;2023-04-15T03:59:36;96702.06;;;6.06
20730;BMP280;10526;50.850;12.928;2023-04-15T04:03:58;96704.00;;;6.06
20730;BMP280;10526;50.850;12.928;2023-04-15T04:08:21;96696.06;;;6.06
20730;BMP280;10526;50.850;12.928;2023-04-15T04:12:43;96697.97;;;6.05
20730;BMP280;10526;50.850;12.928;2023-04-15T04:17:05;96703.25;;;6.05
20730;BMP280;10526;50.850;12.928;2023-04-15T04:21:28;96702.13;;;6.03
20730;BMP280;10526;50.850;12.928;2023-04-15T04:25:50;96701.75;;;6.04
20730;BMP280;10526;50.850;12.928;2023-04-15T04:30:13;96705.81;;;6.13
20730;BMP280;10526;50.850;12.928;2023-04-15T04:34:35;96714.91;;;6.08
20730;BMP280;10526;50.850;12.928;2023-04-15T04:38:57;96713.06;;;6.05
20730;BMP280;10526;50.850;12.928;2023-04-15T04:43:20;96723.63;;;6.05
20730;BMP280;10526;50.850;12.928;2023-04-15T04:47:43;96710.44;;;6.05
20730;BMP280;10526;50.850;12.928;2023-04-15T04:52:05;96716.47;;;6.05
20730;BMP280;10526;50.850;12.928;2023-04-15T04:56:28;96714.50;;;6.09
20730;BMP280;10526;50.850;12.928;2023-04-15T05:00:50;96708.94;;;6.04
20730;BMP280;10526;50.850;12.928;2023-04-15T05:05:12;96696.91;;;5.99
20730;BMP280;10526;50.850;12.928;2023-04-15T05:09:34;96700.63;;;6.02
20730;BMP280;10526;50.850;12.928;2023-04-15T05:13:57;96702.06;;;6.06
20730;BMP280;10526;50.850;12.928;2023-04-15T05:18:22;96703.66;;;6.04
20730;BMP280;10526;50.850;12.928;2023-04-15T05:22:44;96696.06;;;6.06
20730;BMP280;10526;50.850;12.928;2023-04-15T05:27:07;96697.50;;;6.11
20730;BMP280;10526;50.850;12.928;2023-04-15T05:31:31;96710.31;;;6.16
20730;BMP280;10526;50.850;12.928;2023-04-15T05:35:53;96731.47;;;6.16
20730;BMP280;10526;50.850;12.928;2023-04-15T05:40:17;96723.88;;;6.18
20730;BMP280;10526;50.850;12.928;2023-04-15T05:44:39;96714.38;;;6.24
20730;BMP280;10526;50.850;12.928;2023-04-15T05:49:01;96712.06;;;6.29
20730;BMP280;10526;50.850;12.928;2023-04-15T05:53:24;96702.13;;;6.41
20730;BMP280;10526;50.850;12.928;2023-04-15T05:57:46;96709.28;;;6.44
20730;BMP280;10526;50.850;12.928;2023-04-15T06:02:09;96736.09;;;6.46
20730;BMP280;10526;50.850;12.928;2023-04-15T06:06:34;96750.44;;;6.45
20730;BMP280;10526;50.850;12.928;2023-04-15T06:10:59;96735.34;;;6.45
20730;BMP280;10526;50.850;12.928;2023-04-15T06:15:23;96742.88;;;6.47
20730;BMP280;10526;50.850;12.928;2023-04-15T06:19:48;96734.47;;;6.52
20730;BMP280;10526;50.850;12.928;2023-04-15T06:24:16;96756.34;;;6.56
20730;BMP280;10526;50.850;12.928;2023-04-15T06:28:38;96745.25;;;6.68
20730;BMP280;10526;50.850;12.928;2023-04-15T06:33:01;96741.47;;;6.73
20730;BMP280;10526;50.850;12.928;2023-04-15T06:37:26;96746.59;;;6.83
20730;BMP280;10526;50.850;12.928;2023-04-15T06:41:48;96744.22;;;6.93
20730;BMP280;10526;50.850;12.928;2023-04-15T06:46:13;96748.66;;;7.03
20730;BMP280;10526;50.850;12.928;2023-04-15T06:50:39;96731.97;;;7.06
20730;BMP280;10526;50.850;12.928;2023-04-15T06:55:01;96747.69;;;7.17
20730;BMP280;10526;50.850;12.928;2023-04-15T06:59:23;96754.94;;;7.12
20730;BMP280;10526;50.850;12.928;2023-04-15T07:03:45;96757.47;;;7.23
20730;BMP280;10526;50.850;12.928;2023-04-15T07:08:08;96756.47;;;7.37
20730;BMP280;10526;50.850;12.928;2023-04-15T07:12:31;96763.13;;;7.49
20730;BMP280;10526;50.850;12.928;2023-04-15T07:16:56;96759.00;;;7.71
20730;BMP280;10526;50.850;12.928;2023-04-15T07:21:18;96760.81;;;7.78
20730;BMP280;10526;50.850;12.928;2023-04-15T07:25:40;96760.06;;;7.77
20730;BMP280;10526;50.850;12.928;2023-04-15T07:30:03;96767.91;;;7.84
20730;BMP280;10526;50.850;12.928;2023-04-15T07:34:31;96772.97;;;7.99
20730;BMP280;10526;50.850;12.928;2023-04-15T07:38:54;96769.13;;;8.03
20730;BMP280;10526;50.850;12.928;2023-04-15T07:43:16;96776.66;;;8.05
20730;BMP280;10526;50.850;12.928;2023-04-15T07:47:38;96783.94;;;8.01
20730;BMP280;10526;50.850;12.928;2023-04-15T07:52:01;96791.88;;;8.01
20730;BMP280;10526;50.850;12.928;2023-04-15T07:56:24;96787.56;;;8.10
20730;BMP280;10526;50.850;12.928;2023-04-15T08:00:47;96783.09;;;8.27
20730;BMP280;10526;50.850;12.928;2023-04-15T08:05:11;96785.31;;;8.52
20730;BMP280;10526;50.850;12.928;2023-04-15T08:09:35;96790.47;;;8.79
20730;BMP280;10526;50.850;12.928;2023-04-15T08:13:58;96786.91;;;9.06
20730;BMP280;10526;50.850;12.928;2023-04-15T08:18:21;96790.22;;;9.46
20730;BMP280;10526;50.850;12.928;2023-04-15T08:22:44;96795.06;;;9.51
20730;BMP280;10526;50.850;12.928;2023-04-15T08:27:09;96789.28;;;9.36
20730;BMP280;10526;50.850;12.928;2023-04-15T08:31:31;96791.94;;;9.36
20730;BMP280;10526;50.850;12.928;2023-04-15T08:35:53;96812.00;;;9.41
20730;BMP280;10526;50.850;12.928;2023-04-15T08:40:16;96819.38;;;9.49
20730;BMP280;10526;50.850;12.928;2023-04-15T08:44:39;96817.91;;;9.65
20730;BMP280;10526;50.850;12.928;2023-04-15T08:49:04;96823.13;;;9.84
20730;BMP280;10526;50.850;12.928;2023-04-15T08:53:28;96832.34;;;10.13
20730;BMP280;10526;50.850;12.928;2023-04-15T08:57:51;96834.78;;;10.36
20730;BMP280;10526;50.850;12.928;2023-04-15T09:02:13;96837.13;;;10.34
20730;BMP280;10526;50.850;12.928;2023-04-15T09:06:36;96830.06;;;10.27
20730;BMP280;10526;50.850;12.928;2023-04-15T09:11:02;96833.84;;;10.43
20730;BMP280;10526;50.850;12.928;2023-04-15T09:15:24;96824.16;;;10.36
20730;BMP280;10526;50.850;12.928;2023-04-15T09:20:11;96840.84;;;10.65
20730;BMP280;10526;50.850;12.928;2023-04-15T09:24:38;96847.47;;;11.03
20730;BMP280;10526;50.850;12.928;2023-04-15T09:29:11;96860.06;;;11.02
20730;BMP280;10526;50.850;12.928;2023-04-15T09:33:54;96861.34;;;11.10
20730;BMP280;10526;50.850;12.928;2023-04-15T09:38:19;96850.78;;;11.70
20730;BMP280;10526;50.850;12.928;2023-04-15T09:42:55;96853.19;;;12.38
20730;BMP280;10526;50.850;12.928;2023-04-15T09:47:31;96862.72;;;12.82
20730;BMP280;10526;50.850;12.928;2023-04-15T09:52:00;96865.78;;;13.03
20730;BMP280;10526;50.850;12.928;2023-04-15T09:56:37;96873.78;;;13.03
20730;BMP280;10526;50.850;12.928;2023-04-15T10:01:04;96863.50;;;12.92
20730;BMP280;10526;50.850;12.928;2023-04-15T10:05:28;96875.47;;;12.87
20730;BMP280;10526;50.850;12.928;2023-04-15T10:09:51;96870.97;;;12.75
20730;BMP280;10526;50.850;12.928;2023-04-15T10:14:14;96876.72;;;12.74
20730;BMP280;10526;50.850;12.928;2023-04-15T10:18:43;96883.44;;;13.00
20730;BMP280;10526;50.850;12.928;2023-04-15T10:23:06;96874.53;;;13.34
20730;BMP280;10526;50.850;12.928;2023-04-15T10:27:32;96875.44;;;13.40
20730;BMP280;10526;50.850;12.928;2023-04-15T10:31:55;96886.97;;;13.19
20730;BMP280;10526;50.850;12.928;2023-04-15T10:36:18;96889.97;;;12.99
20730;BMP280;10526;50.850;12.928;2023-04-15T10:40:41;96895.41;;;12.74
20730;BMP280;10526;50.850;12.928;2023-04-15T10:45:15;96903.25;;;12.68
20730;BMP280;10526;50.850;12.928;2023-04-15T10:49:50;96904.31;;;12.49
20730;BMP280;10526;50.850;12.928;2023-04-15T10:58:45;96903.06;;;12.28
20730;BMP280;10526;50.850;12.928;2023-04-15T11:03:09;96909.63;;;12.14
20730;BMP280;10526;50.850;12.928;2023-04-15T11:12:09;96921.50;;;12.00
20730;BMP280;10526;50.850;12.928;2023-04-15T11:16:42;96926.41;;;11.89
20730;BMP280;10526;50.850;12.928;2023-04-15T11:21:07;96917.88;;;11.82
20730;BMP280;10526;50.850;12.928;2023-04-15T11:25:34;96923.44;;;11.74
20730;BMP280;10526;50.850;12.928;2023-04-15T11:29:58;96924.53;;;11.52
20730;BMP280;10526;50.850;12.928;2023-04-15T11:34:23;96933.00;;;11.46
20730;BMP280;10526;50.850;12.928;2023-04-15T11:38:46;96938.47;;;11.68
20730;BMP280;10526;50.850;12.928;2023-04-15T11:43:17;96940.38;;;12.06
20730;BMP280;10526;50.850;12.928;2023-04-15T11:47:42;96949.00;;;12.23
20730;BMP280;10526;50.850;12.928;2023-04-15T11:52:10;96950.44;;;12.02
20730;BMP280;10526;50.850;12.928;2023-04-15T11:56:32;96958.53;;;11.98
20730;BMP280;10526;50.850;12.928;2023-04-15T12:00:57;96963.66;;;11.67
20730;BMP280;10526;50.850;12.928;2023-04-15T12:05:19;96968.84;;;11.45
20730;BMP280;10526;50.850;12.928;2023-04-15T12:09:42;96972.19;;;11.20
20730;BMP280;10526;50.850;12.928;2023-04-15T12:14:08;96974.28;;;11.42
20730;BMP280;10526;50.850;12.928;2023-04-15T12:18:30;96976.56;;;11.56
20730;BMP280;10526;50.850;12.928;2023-04-15T12:22:53;96978.78;;;11.70
20730;BMP280;10526;50.850;12.928;2023-04-15T12:27:26;96983.19;;;11.77
20730;BMP280;10526;50.850;12.928;2023-04-15T12:32:08;96983.41;;;11.83
20730;BMP280;10526;50.850;12.928;2023-04-15T12:36:30;96984.25;;;11.80
20730;BMP280;10526;50.850;12.928;2023-04-15T12:41:00;96994.59;;;11.77
20730;BMP280;10526;50.850;12.928;2023-04-15T12:45:22;97000.22;;;11.67
20730;BMP280;10526;50.850;12.928;2023-04-15T12:49:45;97004.59;;;11.61
20730;BMP280;10526;50.850;12.928;2023-04-15T12:54:07;97007.03;;;11.55
20730;BMP280;10526;50.850;12.928;2023-04-15T12:58:30;97015.69;;;11.59
20730;BMP280;10526;50.850;12.928;2023-04-15T13:02:53;97024.13;;;11.58
20730;BMP280;10526;50.850;12.928;2023-04-15T13:07:15;97026.88;;;11.54
20730;BMP280;10526;50.850;12.928;2023-04-15T13:11:38;97036.84;;;11.37
20730;BMP280;10526;50.850;12.928;2023-04-15T13:16:00;97034.22;;;11.21
20730;BMP280;10526;50.850;12.928;2023-04-15T13:20:22;97037.50;;;11.12
20730;BMP280;10526;50.850;12.928;2023-04-15T13:24:44;97047.44;;;11.25
20730;BMP280;10526;50.850;12.928;2023-04-15T13:29:06;97055.69;;;11.30
20730;BMP280;10526;50.850;12.928;2023-04-15T13:33:28;97060.59;;;11.32
20730;BMP280;10526;50.850;12.928;2023-04-15T13:37:52;97062.44;;;11.35
20730;BMP280;10526;50.850;12.928;2023-04-15T13:42:16;97064.56;;;11.40
20730;BMP280;10526;50.850;12.928;2023-04-15T13:46:37;97076.31;;;11.42
20730;BMP280;10526;50.850;12.928;2023-04-15T13:51:01;97081.22;;;11.44
20730;BMP280;10526;50.850;12.928;2023-04-15T13:55:23;97082.25;;;11.34
20730;BMP280;10526;50.850;12.928;2023-04-15T13:59:47;97086.88;;;11.46
20730;BMP280;10526;50.850;12.928;2023-04-15T14:04:09;97081.00;;;11.67
20730;BMP280;10526;50.850;12.928;2023-04-15T14:08:32;97085.38;;;11.74
20730;BMP280;10526;50.850;12.928;2023-04-15T14:12:54;97089.78;;;11.81
20730;BMP280;10526;50.850;12.928;2023-04-15T14:17:17;97095.00;;;11.97
20730;BMP280;10526;50.850;12.928;2023-04-15T14:21:40;97099.53;;;12.25
20730;BMP280;10526;50.850;12.928;2023-04-15T14:26:03;97101.34;;;12.54
20730;BMP280;10526;50.850;12.928;2023-04-15T14:30:25;97108.50;;;12.82
20730;BMP280;10526;50.850;12.928;2023-04-15T14:34:47;97122.59;;;13.30
20730;BMP280;10526;50.850;12.928;2023-04-15T14:39:10;97127.56;;;13.41
20730;BMP280;10526;50.850;12.928;2023-04-15T14:43:34;97128.66;;;13.09
20730;BMP280;10526;50.850;12.928;2023-04-15T14:47:56;97131.56;;;12.89
20730;BMP280;10526;50.850;12.928;2023-04-15T14:52:18;97130.44;;;12.52
20730;BMP280;10526;50.850;12.928;2023-04-15T14:56:40;97142.28;;;12.38
20730;BMP280;10526;50.850;12.928;2023-04-15T15:01:03;97147.25;;;12.11
20730;BMP280;10526;50.850;12.928;2023-04-15T15:05:26;97151.34;;;12.41
20730;BMP280;10526;50.850;12.928;2023-04-15T15:09:48;97150.50;;;12.56
20730;BMP280;10526;50.850;12.928;2023-04-15T15:14:11;97158.19;;;12.67
20730;BMP280;10526;50.850;12.928;2023-04-15T15:18:34;97163.44;;;12.58
20730;BMP280;10526;50.850;12.928;2023-04-15T15:22:57;97166.75;;;12.37
20730;BMP280;10526;50.850;12.928;2023-04-15T15:27:19;97172.56;;;12.19
20730;BMP280;10526;50.850;12.928;2023-04-15T15:31:42;97175.63;;;12.04
20730;BMP280;10526;50.850;12.928;2023-04-15T15:36:04;97179.19;;;12.14
20730;BMP280;10526;50.850;12.928;2023-04-15T15:40:26;97184.66;;;12.23
20730;BMP280;10526;50.850;12.928;2023-04-15T15:44:49;97192.25;;;12.38
20730;BMP280;10526;50.850;12.928;2023-04-15T15:49:13;97189.06;;;12.68
20730;BMP280;10526;50.850;12.928;2023-04-15T15:53:35;97204.56;;;12.99
20730;BMP280;10526;50.850;12.928;2023-04-15T15:57:58;97203.91;;;13.20
20730;BMP280;10526;50.850;12.928;2023-04-15T16:02:20;97213.63;;;13.27
20730;BMP280;10526;50.850;12.928;2023-04-15T16:07:03;97223.72;;;12.97
20730;BMP280;10526;50.850;12.928;2023-04-15T16:11:25;97222.31;;;12.93
20730;BMP280;10526;50.850;12.928;2023-04-15T16:15:48;97230.34;;;12.80
20730;BMP280;10526;50.850;12.928;2023-04-15T16:20:30;97231.56;;;12.50
20730;BMP280;10526;50.850;12.928;2023-04-15T16:24:53;97232.50;;;12.30
20730;BMP280;10526;50.850;12.928;2023-04-15T16:29:15;97237.91;;;12.14
20730;BMP280;10526;50.850;12.928;2023-04-15T16:33:37;97241.47;;;11.95
20730;BMP280;10526;50.850;12.928;2023-04-15T16:37:59;97243.25;;;12.14
20730;BMP280;10526;50.850;12.928;2023-04-15T16:42:21;97252.44;;;12.26
20730;BMP280;10526;50.850;12.928;2023-04-15T16:46:44;97248.72;;;12.23
20730;BMP280;10526;50.850;12.928;2023-04-15T16:51:06;97255.28;;;12.06
20730;BMP280;10526;50.850;12.928;2023-04-15T16:55:29;97264.97;;;11.84
20730;BMP280;10526;50.850;12.928;2023-04-15T16:59:51;97268.50;;;11.64
20730;BMP280;10526;50.850;12.928;2023-04-15T17:04:13;97264.31;;;11.47
20730;BMP280;10526;50.850;12.928;2023-04-15T17:08:35;97277.47;;;11.21
20730;BMP280;10526;50.850;12.928;2023-04-15T17:12:58;97284.69;;;11.05
20730;BMP280;10526;50.850;12.928;2023-04-15T17:17:21;97287.16;;;10.79
20730;BMP280;10526;50.850;12.928;2023-04-15T17:21:44;97295.47;;;10.61
20730;BMP280;10526;50.850;12.928;2023-04-15T17:26:06;97304.69;;;10.37
20730;BMP280;10526;50.850;12.928;2023-04-15T17:30:28;97302.97;;;10.03
20730;BMP280;10526;50.850;12.928;2023-04-15T17:34:50;97314.44;;;9.73
20730;BMP280;10526;50.850;12.928;2023-04-15T17:39:12;97325.75;;;9.54
20730;BMP280;10526;50.850;12.928;2023-04-15T17:43:35;97332.38;;;9.42
20730;BMP280;10526;50.850;12.928;2023-04-15T17:47:57;97338.13;;;9.37
20730;BMP280;10526;50.850;12.928;2023-04-15T17:52:23;97346.59;;;9.25
20730;BMP280;10526;50.850;12.928;2023-04-15T17:56:45;97355.81;;;9.17
20730;BMP280;10526;50.850;12.928;2023-04-15T18:01:07;97360.06;;;9.14
20730;BMP280;10526;50.850;12.928;2023-04-15T18:05:29;97360.84;;;9.11
20730;BMP280;10526;50.850;12.928;2023-04-15T18:09:52;97370.41;;;9.05
20730;BMP280;10526;50.850;12.928;2023-04-15T18:14:16;97377.25;;;9.02
20730;BMP280;10526;50.850;12.928;2023-04-15T18:18:55;97384.88;;;8.97
20730;BMP280;10526;50.850;12.928;2023-04-15T18:23:17;97385.72;;;8.90
20730;BMP280;10526;50.850;12.928;2023-04-15T18:27:39;97394.13;;;8.85
20730;BMP280;10526;50.850;12.928;2023-04-15T18:32:02;97395.28;;;8.84
20730;BMP280;10526;50.850;12.928;2023-04-15T18:36:24;97399.47;;;8.78
20730;BMP280;10526;50.850;12.928;2023-04-15T18:40:47;97410.16;;;8.71
20730;BMP280;10526;50.850;12.928;2023-04-15T18:45:10;97408.72;;;8.66
20730;BMP280;10526;50.850;12.928;2023-04-15T18:49:32;97412.16;;;8.60
20730;BMP280;10526;50.850;12.928;2023-04-15T18:53:54;97420.13;;;8.60
20730;BMP280;10526;50.850;12.928;2023-04-15T18:58:16;97426.22;;;8.60
20730;BMP280;10526;50.850;12.928;2023-04-15T19:02:39;97427.31;;;8.63
20730;BMP280;10526;50.850;12.928;2023-04-15T19:07:01;97430.34;;;8.65
20730;BMP280;10526;50.850;12.928;2023-04-15T19:11:24;97434.50;;;8.66
20730;BMP280;10526;50.850;12.928;2023-04-15T19:15:47;97436.72;;;8.67
20730;BMP280;10526;50.850;12.928;2023-04-15T19:20:10;97447.34;;;8.67
20730;BMP280;10526;50.850;12.928;2023-04-15T19:24:32;97446.19;;;8.76
20730;BMP280;10526;50.850;12.928;2023-04-15T19:28:54;97454.94;;;8.72
20730;BMP280;10526;50.850;12.928;2023-04-15T19:33:19;97454.94;;;8.69
20730;BMP280;10526;50.850;12.928;2023-04-15T19:37:41;97459.16;;;8.63
20730;BMP280;10526;50.850;12.928;2023-04-15T19:42:05;97466.38;;;8.59
20730;BMP280;10526;50.850;12.928;2023-04-15T19:46:27;97464.88;;;8.58
20730;BMP280;10526;50.850;12.928;2023-04-15T19:50:49;97473.66;;;8.55
20730;BMP280;10526;50.850;12.928;2023-04-15T19:55:11;97478.59;;;8.53
20730;BMP280;10526;50.850;12.928;2023-04-15T19:59:34;97474.06;;;8.50
20730;BMP280;10526;50.850;12.928;2023-04-15T20:03:56;97486.91;;;8.51
20730;BMP280;10526;50.850;12.928;2023-04-15T20:08:18;97489.97;;;8.53
20730;BMP280;10526;50.850;12.928;2023-04-15T20:12:40;97488.41;;;8.56
20730;BMP280;10526;50.850;12.928;2023-04-15T20:17:13;97491.06;;;8.56
20730;BMP280;10526;50.850;12.928;2023-04-15T20:21:36;97496.03;;;8.54
20730;BMP280;10526;50.850;12.928;2023-04-15T20:26:00;97508.91;;;8.52
20730;BMP280;10526;50.850;12.928;2023-04-15T20:30:23;97496.81;;;8.47
20730;BMP280;10526;50.850;12.928;2023-04-15T20:34:45;97513.50;;;8.44
20730;BMP280;10526;50.850;12.928;2023-04-15T20:39:08;97512.41;;;8.41
20730;BMP280;10526;50.850;12.928;2023-04-15T20:43:30;97515.09;;;8.34
20730;BMP280;10526;50.850;12.928;2023-04-15T20:47:52;97512.06;;;8.29
20730;BMP280;10526;50.850;12.928;2023-04-15T20:52:16;97511.31;;;8.28
20730;BMP280;10526;50.850;12.928;2023-04-15T20:56:39;97517.75;;;8.31
20730;BMP280;10526;50.850;12.928;2023-04-15T21:01:01;97525.72;;;8.27
20730;BMP280;10526;50.850;12.928;2023-04-15T21:05:22;97528.38;;;8.27
20730;BMP280;10526;50.850;12.928;2023-04-15T21:09:45;97523.88;;;8.24
20730;BMP280;10526;50.850;12.928;2023-04-15T21:14:07;97539.34;;;8.29
20730;BMP280;10526;50.850;12.928;2023-04-15T21:18:29;97539.00;;;8.27
20730;BMP280;10526;50.850;12.928;2023-04-15T21:22:51;97545.47;;;8.19
20730;BMP280;10526;50.850;12.928;2023-04-15T21:27:13;97553.09;;;8.13
20730;BMP280;10526;50.850;12.928;2023-04-15T21:31:35;97552.34;;;8.09
20730;BMP280;10526;50.850;12.928;2023-04-15T21:35:57;97559.97;;;8.00
20730;BMP280;10526;50.850;12.928;2023-04-15T21:40:20;97555.41;;;7.93
20730;BMP280;10526;50.850;12.928;2023-04-15T21:44:42;97558.09;;;7.90
20730;BMP280;10526;50.850;12.928;2023-04-15T21:49:04;97561.53;;;7.83
20730;BMP280;10526;50.850;12.928;2023-04-15T21:53:28;97572.16;;;7.76
20730;BMP280;10526;50.850;12.928;2023-04-15T21:57:50;97572.91;;;7.73
20730;BMP280;10526;50.850;12.928;2023-04-15T22:02:12;97580.50;;;7.67
20730;BMP280;10526;50.850;12.928;2023-04-15T22:06:34;97578.97;;;7.66
20730;BMP280;10526;50.850;12.928;2023-04-15T22:10:57;97584.28;;;7.70
20730;BMP280;10526;50.850;12.928;2023-04-15T22:15:19;97586.53;;;7.79
20730;BMP280;10526;50.850;12.928;2023-04-15T22:19:41;97586.91;;;7.84
20730;BMP280;10526;50.850;12.928;2023-04-15T22:24:03;97599.38;;;7.91
20730;BMP280;10526;50.850;12.928;2023-04-15T22:28:45;97606.53;;;7.94
20730;BMP280;10526;50.850;12.928;2023-04-15T22:33:08;97609.97;;;7.91
20730;BMP280;10526;50.850;12.928;2023-04-15T22:37:32;97622.47;;;7.87
20730;BMP280;10526;50.850;12.928;2023-04-15T22:41:54;97625.50;;;7.85
20730;BMP280;10526;50.850;12.928;2023-04-15T22:46:17;97624.00;;;7.84
20730;BMP280;10526;50.850;12.928;2023-04-15T22:50:40;97632.31;;;7.90
20730;BMP280;10526;50.850;12.928;2023-04-15T22:55:03;97624.75;;;7.92
20730;BMP280;10526;50.850;12.928;2023-04-15T22:59:26;97628.16;;;7.92
20730;BMP280;10526;50.850;12.928;2023-04-15T23:03:49;97628.53;;;7.91
20730;BMP280;10526;50.850;12.928;2023-04-15T23:08:18;97633.09;;;7.90
20730;BMP280;10526;50.850;12.928;2023-04-15T23:12:40;97634.22;;;7.89
20730;BMP280;10526;50.850;12.928;2023-04-15T23:17:02;97645.97;;;7.88
20730;BMP280;10526;50.850;12.928;2023-04-15T23:21:24;97641.81;;;7.87
20730;BMP280;10526;50.850;12.928;2023-04-15T23:25:48;97650.50;;;7.84
20730;BMP280;10526;50.850;12.928;2023-04-15T23:30:10;97652.78;;;7.82
20730;BMP280;10526;50.850;12.928;2023-04-15T23:34:32;97642.91;;;7.83
20730;BMP280;10526;50.850;12.928;2023-04-15T23:38:55;97644.06;;;7.85
20730;BMP280;10526;50.850;12.928;2023-04-15T23:43:17;97643.69;;;7.90
20730;BMP280;10526;50.850;12.928;2023-04-15T23:47:39;97656.16;;;7.93
20730;BMP280;10526;50.850;12.928;2023-04-15T23:52:02;97646.31;;;7.94
20730;BMP280;10526;50.850;12.928;2023-04-15T23:56:24;97650.88;;;7.97
